Position Information

EPKK_GND
118.105 MHz
eu17.ts.ivao.aero/EPKK_GND
Krakow Ground
Information DELTA recorded at 2221z
EPKK 232200Z 03005KT 9999 OVC025 M02/M07 Q1033
ARR RWY 07 / DEP RWY 07 / TRL FL80 / TA 6500ft
RMK All necessary charts can be found here www.ais.pansa.pl/publikacje/aip-ifr/
CONFIRM ATIS INFO DELTA on initial contact
AS3 642785 (642785)